Time;durP1;ratioP1;P1;durP2;ratioP2;P2;SDS_P1;SDS_P2;PMS_P1;PMS_P2;Temp;Humidity;BMP_temperature;BMP_pressure;BME280_temperature;BME280_humidity;BME280_pressure;Samples;Min_cycle;Max_cycle;Signal;HPM_P1;HPM_P2
2023/07/29 00:01:39;;;;;;;0.90;0.70;;;17.10;99.90;;;;;;5129246;27;20476;-85
2023/07/29 00:04:09;;;;;;;1.53;0.70;;;17.10;99.90;;;;;;5124136;27;20460;-83
2023/07/29 00:06:36;;;;;;;0.83;0.80;;;17.10;99.90;;;;;;5129239;27;20503;-83
2023/07/29 00:09:03;;;;;;;1.30;1.20;;;17.10;99.90;;;;;;5127473;27;20440;-83
2023/07/29 00:11:32;;;;;;;0.97;0.70;;;17.10;99.90;;;;;;5124759;27;20496;-83
2023/07/29 00:13:59;;;;;;;1.23;0.70;;;17.10;99.90;;;;;;5127792;27;20507;-82
2023/07/29 00:16:26;;;;;;;1.00;0.60;;;17.00;99.90;;;;;;5125162;27;20857;-83
2023/07/29 00:18:53;;;;;;;1.33;1.23;;;16.90;99.90;;;;;;5125640;27;20440;-83
2023/07/29 00:21:21;;;;;;;0.80;0.73;;;16.90;99.90;;;;;;5124013;27;20525;-83
2023/07/29 00:23:48;;;;;;;1.17;0.90;;;16.90;99.90;;;;;;5127205;27;20444;-85
2023/07/29 00:26:15;;;;;;;1.30;0.77;;;16.80;99.90;;;;;;5143958;27;20482;-82
2023/07/29 00:28:42;;;;;;;1.13;0.70;;;16.90;99.90;;;;;;5149991;27;20502;-82
2023/07/29 00:31:09;;;;;;;1.43;1.33;;;16.90;99.90;;;;;;5140395;27;20453;-84
2023/07/29 00:33:36;;;;;;;1.20;1.00;;;17.00;99.90;;;;;;5132750;27;20526;-83
2023/07/29 00:36:03;;;;;;;3.10;0.90;;;16.90;99.90;;;;;;5128694;27;20447;-84
2023/07/29 00:38:31;;;;;;;6.13;3.07;;;17.00;99.90;;;;;;5121769;27;20480;-84
2023/07/29 00:40:59;;;;;;;1.00;0.80;;;17.00;99.90;;;;;;5129011;27;21223;-82
2023/07/29 00:43:26;;;;;;;1.77;1.23;;;17.00;99.90;;;;;;5127458;27;21223;-82
2023/07/29 00:45:53;;;;;;;1.33;0.97;;;16.90;99.90;;;;;;5117925;27;20471;-81
2023/07/29 00:48:20;;;;;;;5.80;1.40;;;17.00;99.90;;;;;;5119237;27;20559;-84
2023/07/29 00:50:47;;;;;;;3.63;0.80;;;16.90;99.90;;;;;;5123826;27;20517;-85
2023/07/29 00:53:14;;;;;;;2.27;0.77;;;16.90;99.90;;;;;;5124064;27;21210;-86
2023/07/29 00:55:43;;;;;;;1.97;1.53;;;16.90;99.90;;;;;;5124646;27;20491;-82
2023/07/29 00:58:10;;;;;;;1.67;0.87;;;16.80;99.90;;;;;;5123529;27;20444;-84
2023/07/29 01:00:37;;;;;;;1.30;1.10;;;16.90;99.90;;;;;;5121301;27;20529;-83
2023/07/29 01:03:05;;;;;;;3.27;2.30;;;17.00;99.90;;;;;;5125104;27;20487;-82
2023/07/29 01:05:41;;;;;;;1.20;0.90;;;17.00;99.90;;;;;;5124888;27;20496;-82
2023/07/29 01:08:19;;;;;;;0.70;0.70;;;17.00;99.90;;;;;;5127000;27;20442;-84
2023/07/29 01:10:55;;;;;;;2.93;0.80;;;17.00;99.90;;;;;;5125302;27;20443;-83
2023/07/29 01:13:29;;;;;;;1.03;0.93;;;16.90;99.90;;;;;;5122165;27;20472;-82
2023/07/29 01:15:59;;;;;;;1.20;0.60;;;16.80;99.90;;;;;;5124731;27;20525;-81
2023/07/29 01:18:29;;;;;;;1.37;0.60;;;16.80;99.90;;;;;;5125396;27;20468;-84
2023/07/29 01:21:00;;;;;;;0.83;0.60;;;16.90;99.90;;;;;;5123970;27;20448;-83
2023/07/29 01:23:31;;;;;;;0.70;0.60;;;17.00;99.90;;;;;;5123984;27;20485;-82
2023/07/29 01:25:58;;;;;;;1.00;0.90;;;17.00;99.90;;;;;;5121283;27;20456;-84
2023/07/29 01:28:25;;;;;;;1.07;0.73;;;17.00;99.90;;;;;;5122257;27;21074;-81
2023/07/29 01:30:58;;;;;;;1.43;0.70;;;17.00;99.90;;;;;;5128503;27;20487;-82
2023/07/29 01:33:27;;;;;;;1.43;0.80;;;17.10;99.90;;;;;;5125273;27;20529;-82
2023/07/29 01:35:59;;;;;;;1.60;0.87;;;17.10;99.90;;;;;;5126738;27;20458;-82
2023/07/29 01:38:33;;;;;;;1.00;0.90;;;17.10;99.90;;;;;;5126895;27;20479;-82
2023/07/29 01:41:02;;;;;;;1.60;1.23;;;17.10;99.90;;;;;;5127198;27;20450;-82
2023/07/29 01:43:29;;;;;;;1.43;0.70;;;17.00;99.90;;;;;;5126003;27;20487;-82
2023/07/29 01:45:57;;;;;;;1.33;1.20;;;17.00;99.90;;;;;;5125348;27;20449;-81
2023/07/29 01:48:24;;;;;;;1.43;0.87;;;17.00;99.90;;;;;;5126150;27;20552;-82
2023/07/29 01:50:51;;;;;;;0.90;0.90;;;17.00;99.90;;;;;;5127378;27;20487;-81
2023/07/29 01:53:18;;;;;;;1.20;1.03;;;17.00;99.90;;;;;;5141949;27;20470;-82
2023/07/29 01:55:46;;;;;;;0.90;0.67;;;16.90;99.90;;;;;;5142320;27;20441;-82
2023/07/29 01:58:14;;;;;;;0.80;0.77;;;16.90;99.90;;;;;;5139436;27;20911;-83
2023/07/29 02:00:41;;;;;;;1.30;1.10;;;16.80;99.90;;;;;;5140701;27;20441;-83
2023/07/29 02:03:08;;;;;;;1.53;0.90;;;16.70;99.90;;;;;;5127097;27;20557;-83
2023/07/29 02:05:35;;;;;;;1.00;0.70;;;16.80;99.90;;;;;;5127131;27;20515;-83
2023/07/29 02:08:02;;;;;;;5.00;1.13;;;16.70;99.90;;;;;;5126942;27;20512;-83
2023/07/29 02:10:29;;;;;;;3.57;0.70;;;16.70;99.90;;;;;;5124894;27;20458;-83
2023/07/29 02:12:57;;;;;;;1.00;0.90;;;16.80;99.90;;;;;;5125569;27;20473;-85
2023/07/29 02:15:24;;;;;;;1.10;0.93;;;16.70;99.90;;;;;;5122337;27;20484;-83
2023/07/29 02:17:52;;;;;;;2.93;2.60;;;16.60;99.90;;;;;;5123118;27;20495;-83
2023/07/29 02:20:19;;;;;;;1.10;0.90;;;16.70;99.90;;;;;;5127004;27;20439;-83
2023/07/29 02:22:46;;;;;;;0.97;0.87;;;16.70;99.90;;;;;;5126998;27;20514;-83
2023/07/29 02:25:13;;;;;;;1.83;1.07;;;16.60;99.90;;;;;;5122359;27;20450;-82
2023/07/29 02:27:40;;;;;;;1.33;1.07;;;16.60;99.90;;;;;;5125476;27;20455;-83
2023/07/29 02:30:10;;;;;;;2.13;0.83;;;16.70;99.90;;;;;;5123387;27;20589;-86
2023/07/29 02:32:37;;;;;;;1.20;0.90;;;16.70;99.90;;;;;;5125111;27;20524;-83
2023/07/29 02:35:05;;;;;;;3.60;1.63;;;16.70;99.90;;;;;;5124426;27;20477;-82
2023/07/29 02:37:32;;;;;;;1.83;1.40;;;16.70;99.90;;;;;;5123193;27;20458;-85
2023/07/29 02:39:59;;;;;;;1.80;1.70;;;16.80;99.90;;;;;;5121776;28;20455;-83
2023/07/29 02:42:26;;;;;;;1.30;1.17;;;16.90;99.90;;;;;;5126362;28;20488;-82
2023/07/29 02:44:53;;;;;;;1.30;1.20;;;16.90;99.90;;;;;;5126361;28;20512;-81
2023/07/29 02:47:21;;;;;;;4.30;2.20;;;16.90;99.90;;;;;;5121291;28;20545;-82
2023/07/29 02:49:48;;;;;;;2.40;1.00;;;16.90;99.90;;;;;;5124755;28;20509;-83
2023/07/29 02:52:15;;;;;;;1.70;1.10;;;16.90;99.90;;;;;;5126552;28;20488;-82
2023/07/29 02:54:42;;;;;;;1.43;1.17;;;16.90;99.90;;;;;;5125035;28;20471;-83
2023/07/29 02:57:09;;;;;;;1.57;1.00;;;17.00;99.90;;;;;;5125005;28;20947;-85
2023/07/29 02:59:36;;;;;;;1.93;1.83;;;16.90;99.90;;;;;;5124483;28;20494;-83
2023/07/29 03:02:03;;;;;;;1.40;1.23;;;16.80;99.90;;;;;;5126193;28;20507;-84
2023/07/29 03:04:31;;;;;;;1.30;1.20;;;16.80;99.90;;;;;;5125862;28;20943;-83
2023/07/29 03:06:59;;;;;;;1.20;1.10;;;16.90;99.90;;;;;;5124726;28;20487;-83
2023/07/29 03:09:26;;;;;;;1.43;1.30;;;16.90;99.90;;;;;;5129005;27;20457;-83
2023/07/29 03:11:54;;;;;;;0.97;0.80;;;16.90;99.90;;;;;;5130284;27;20482;-83
2023/07/29 03:14:21;;;;;;;0.97;0.87;;;16.80;99.90;;;;;;5125245;27;21167;-83
2023/07/29 03:16:48;;;;;;;2.63;1.20;;;16.70;99.90;;;;;;5128518;27;20461;-84
2023/07/29 03:19:16;;;;;;;2.37;1.10;;;16.60;99.90;;;;;;5130963;27;20443;-83
2023/07/29 03:21:45;;;;;;;1.00;0.90;;;16.70;99.90;;;;;;5142104;27;20493;-82
2023/07/29 03:24:12;;;;;;;0.90;0.90;;;16.70;99.90;;;;;;5142717;27;20439;-84
2023/07/29 03:26:39;;;;;;;3.43;2.67;;;16.70;99.90;;;;;;5146824;27;20474;-82
2023/07/29 03:29:06;;;;;;;1.40;1.30;;;16.70;99.90;;;;;;5133328;27;20515;-82
2023/07/29 03:31:33;;;;;;;1.80;1.70;;;16.60;99.90;;;;;;5130345;27;20451;-83
2023/07/29 03:34:00;;;;;;;5.57;2.07;;;16.50;99.90;;;;;;5126489;27;20464;-84
2023/07/29 03:36:27;;;;;;;1.40;1.20;;;16.50;99.90;;;;;;5127958;27;20894;-82
2023/07/29 03:38:55;;;;;;;1.73;1.00;;;16.60;99.90;;;;;;5129683;27;20447;-82
2023/07/29 03:41:22;;;;;;;2.27;1.80;;;16.60;99.90;;;;;;5129204;27;20477;-84
2023/07/29 03:43:49;;;;;;;1.70;1.57;;;16.60;99.90;;;;;;5120773;27;20553;-83
2023/07/29 03:46:19;;;;;;;1.70;0.93;;;16.60;99.90;;;;;;5129235;27;20519;-84
2023/07/29 03:48:46;;;;;;;1.63;1.47;;;16.70;99.90;;;;;;5126683;27;20542;-83
2023/07/29 03:51:13;;;;;;;1.73;1.63;;;16.60;99.90;;;;;;5126217;27;20507;-86
2023/07/29 03:53:40;;;;;;;1.60;1.50;;;16.60;99.90;;;;;;5129117;27;20453;-84
2023/07/29 03:56:08;;;;;;;2.00;1.60;;;16.60;99.90;;;;;;5127736;27;20497;-85
2023/07/29 03:58:35;;;;;;;2.00;1.70;;;16.70;99.90;;;;;;5127825;27;20486;-82
2023/07/29 04:01:02;;;;;;;1.77;1.67;;;16.50;99.90;;;;;;5126933;27;20933;-84
2023/07/29 04:03:29;;;;;;;2.97;2.23;;;16.50;99.90;;;;;;5128750;27;20885;-84
2023/07/29 04:05:56;;;;;;;1.53;1.40;;;16.50;99.90;;;;;;5129928;27;20461;-84
2023/07/29 04:08:23;;;;;;;1.97;1.77;;;16.70;99.90;;;;;;5126883;27;20486;-83
2023/07/29 04:10:50;;;;;;;2.23;2.03;;;16.80;99.90;;;;;;5129220;27;20599;-83
2023/07/29 04:13:19;;;;;;;2.17;1.67;;;16.90;99.90;;;;;;5126158;27;20495;-86
2023/07/29 04:15:46;;;;;;;2.07;1.63;;;16.80;99.90;;;;;;5128457;27;20451;-84
2023/07/29 04:18:13;;;;;;;1.40;1.30;;;16.90;99.90;;;;;;5125763;27;20461;-82
2023/07/29 04:20:40;;;;;;;2.80;1.63;;;17.00;99.90;;;;;;5127092;27;20520;-82
2023/07/29 04:23:07;;;;;;;2.40;2.07;;;17.00;99.90;;;;;;5127765;27;20516;-84
2023/07/29 04:25:34;;;;;;;2.90;2.50;;;17.10;99.90;;;;;;5128844;27;20453;-82
2023/07/29 04:28:03;;;;;;;1.50;1.30;;;17.20;99.90;;;;;;5122502;27;20497;-81
2023/07/29 04:30:31;;;;;;;4.67;2.30;;;17.30;99.90;;;;;;5127341;27;20450;-82
2023/07/29 04:32:58;;;;;;;2.03;1.60;;;17.30;99.90;;;;;;5125606;27;20511;-83
2023/07/29 04:35:25;;;;;;;2.27;2.17;;;17.30;99.90;;;;;;5129239;27;20442;-86
2023/07/29 04:37:52;;;;;;;2.70;1.20;;;17.30;99.90;;;;;;5128110;27;20545;-84
2023/07/29 04:40:19;;;;;;;1.73;1.63;;;17.40;99.90;;;;;;5124668;27;20553;-83
2023/07/29 04:42:46;;;;;;;1.70;1.60;;;17.40;99.90;;;;;;5124582;27;20590;-84
2023/07/29 04:45:13;;;;;;;3.40;2.60;;;17.40;99.90;;;;;;5128321;27;20447;-83
2023/07/29 04:47:42;;;;;;;1.70;1.60;;;17.40;99.90;;;;;;5133542;27;20484;-83
2023/07/29 04:50:09;;;;;;;1.97;1.30;;;17.30;99.90;;;;;;5143489;27;20435;-87
2023/07/29 04:52:36;;;;;;;1.30;1.00;;;17.20;99.90;;;;;;5138087;27;20795;-81
2023/07/29 04:55:04;;;;;;;1.27;1.17;;;17.20;99.90;;;;;;5133579;27;20450;-83
2023/07/29 04:57:31;;;;;;;1.33;1.23;;;17.20;99.90;;;;;;5130193;27;20444;-81
2023/07/29 04:59:58;;;;;;;2.13;1.20;;;17.20;99.90;;;;;;5125942;27;20517;-81
2023/07/29 05:02:24;;;;;;;0.97;0.73;;;17.20;99.90;;;;;;5127392;27;20459;-81
2023/07/29 05:04:53;;;;;;;1.10;0.80;;;17.10;99.90;;;;;;5128659;27;20475;-82
2023/07/29 05:07:20;;;;;;;1.70;1.43;;;17.10;99.90;;;;;;5128066;27;20525;-80
2023/07/29 05:09:48;;;;;;;1.10;1.00;;;17.10;99.90;;;;;;5122266;27;20811;-83
2023/07/29 05:12:15;;;;;;;1.30;1.20;;;17.10;99.90;;;;;;5126961;27;20471;-80
2023/07/29 05:14:42;;;;;;;1.77;0.93;;;17.20;99.90;;;;;;5127975;27;20530;-82
2023/07/29 05:17:09;;;;;;;0.97;0.83;;;17.20;99.90;;;;;;5124585;27;20460;-83
2023/07/29 05:19:36;;;;;;;1.70;0.80;;;17.30;99.90;;;;;;5126894;27;20479;-81
2023/07/29 05:22:04;;;;;;;2.37;0.73;;;17.30;99.90;;;;;;5122833;27;20515;-81
2023/07/29 05:24:31;;;;;;;2.00;1.27;;;17.40;99.90;;;;;;5126520;27;20511;-80
2023/07/29 05:26:58;;;;;;;2.90;2.10;;;17.40;99.90;;;;;;5124936;27;21002;-80
2023/07/29 05:29:25;;;;;;;1.43;1.23;;;17.50;99.90;;;;;;5127839;27;20501;-80
2023/07/29 05:31:52;;;;;;;5.90;0.97;;;17.60;99.90;;;;;;5122999;27;20536;-82
2023/07/29 05:34:19;;;;;;;1.10;1.00;;;17.80;99.90;;;;;;5126659;27;20441;-80
2023/07/29 05:36:46;;;;;;;1.60;1.23;;;18.00;99.90;;;;;;5127421;27;20453;-81
2023/07/29 05:39:15;;;;;;;0.90;0.63;;;18.20;99.90;;;;;;5123186;27;20949;-81
2023/07/29 05:41:42;;;;;;;5.80;0.80;;;18.30;99.90;;;;;;5123480;27;21386;-81
2023/07/29 05:44:09;;;;;;;1.47;1.00;;;18.50;99.90;;;;;;5122283;27;20492;-81
2023/07/29 05:46:35;;;;;;;2.27;1.10;;;18.60;99.90;;;;;;5116490;27;22385;-82
2023/07/29 05:49:02;;;;;;;1.20;0.90;;;18.60;99.90;;;;;;5120677;27;20498;-83
2023/07/29 05:51:29;;;;;;;1.87;0.87;;;18.70;99.90;;;;;;5120052;27;20459;-81
2023/07/29 05:53:56;;;;;;;0.80;0.80;;;18.80;99.90;;;;;;5123071;27;20539;-81
2023/07/29 05:56:25;;;;;;;1.10;0.90;;;19.00;99.90;;;;;;5126914;27;20501;-80
2023/07/29 05:58:52;;;;;;;1.40;1.00;;;19.20;99.90;;;;;;5126024;27;20797;-80
2023/07/29 06:01:21;;;;;;;1.30;0.70;;;19.40;99.90;;;;;;5120105;27;20939;-80
2023/07/29 06:03:48;;;;;;;0.97;0.87;;;19.50;99.90;;;;;;5119670;27;20547;-80
2023/07/29 06:06:15;;;;;;;1.33;1.23;;;19.50;99.90;;;;;;5121598;27;20490;-81
2023/07/29 06:08:42;;;;;;;2.33;2.13;;;19.60;99.90;;;;;;5121558;27;20533;-82
2023/07/29 06:11:09;;;;;;;6.83;1.00;;;19.70;99.90;;;;;;5124228;27;20461;-81
2023/07/29 06:13:37;;;;;;;1.23;1.13;;;19.90;99.90;;;;;;5124997;27;20457;-81
2023/07/29 06:16:04;;;;;;;2.83;1.30;;;20.10;99.90;;;;;;5127402;27;20455;-82
2023/07/29 06:18:31;;;;;;;1.70;0.77;;;20.10;99.90;;;;;;5127805;27;20449;-80
2023/07/29 06:20:58;;;;;;;1.47;1.20;;;20.20;99.90;;;;;;5133757;27;21717;-79
2023/07/29 06:23:25;;;;;;;0.80;0.70;;;20.10;99.90;;;;;;5135917;27;20556;-80
2023/07/29 06:25:52;;;;;;;1.50;1.07;;;20.20;99.90;;;;;;5124985;27;20506;-80
2023/07/29 06:28:19;;;;;;;0.73;0.70;;;20.30;99.90;;;;;;5121064;27;20548;-81
2023/07/29 06:30:47;;;;;;;1.50;1.40;;;20.40;99.90;;;;;;5116990;27;20458;-82
2023/07/29 06:33:14;;;;;;;0.90;0.80;;;20.40;99.90;;;;;;5121079;27;20502;-82
2023/07/29 06:35:42;;;;;;;1.37;0.90;;;20.50;99.90;;;;;;5122356;27;20442;-82
2023/07/29 06:38:09;;;;;;;0.90;0.77;;;20.70;99.90;;;;;;5127652;27;20458;-82
2023/07/29 06:40:36;;;;;;;1.10;0.93;;;20.60;99.90;;;;;;5119356;27;20474;-82
2023/07/29 06:43:03;;;;;;;1.07;0.90;;;20.80;99.90;;;;;;5121778;27;20457;-81
2023/07/29 06:45:30;;;;;;;2.60;1.27;;;20.90;99.90;;;;;;5124795;27;20464;-82
2023/07/29 06:47:58;;;;;;;0.80;0.60;;;21.00;99.90;;;;;;5132248;27;20549;-80
2023/07/29 06:50:25;;;;;;;1.73;0.90;;;21.00;99.90;;;;;;5127771;27;20472;-81
2023/07/29 06:52:52;;;;;;;1.70;0.90;;;20.90;99.90;;;;;;5130592;27;20489;-81
2023/07/29 06:55:19;;;;;;;1.40;0.60;;;21.30;99.90;;;;;;5128570;27;20501;-81
2023/07/29 06:57:47;;;;;;;3.30;1.47;;;21.70;99.90;;;;;;5126760;27;20462;-80
2023/07/29 07:00:14;;;;;;;2.17;1.60;;;21.90;99.90;;;;;;5128129;27;20469;-79
2023/07/29 07:02:41;;;;;;;1.10;1.00;;;21.90;99.90;;;;;;5129975;27;20871;-80
2023/07/29 07:05:10;;;;;;;1.00;0.70;;;22.00;99.90;;;;;;5126688;27;20515;-80
2023/07/29 07:07:37;;;;;;;1.53;1.10;;;21.90;99.90;;;;;;5125593;27;21202;-80
2023/07/29 07:10:05;;;;;;;1.20;0.90;;;22.00;99.90;;;;;;5132022;27;20983;-82
2023/07/29 07:12:32;;;;;;;3.03;1.70;;;22.10;99.90;;;;;;5122164;27;20465;-80
2023/07/29 07:14:59;;;;;;;0.70;0.60;;;22.10;99.90;;;;;;5131988;27;20847;-80
2023/07/29 07:17:26;;;;;;;1.10;0.63;;;22.00;99.90;;;;;;5127166;27;20573;-81
2023/07/29 07:19:53;;;;;;;2.00;1.10;;;22.20;99.90;;;;;;5129112;27;20489;-80
2023/07/29 07:22:21;;;;;;;4.70;0.87;;;22.40;99.90;;;;;;5124776;27;20466;-81
2023/07/29 07:24:48;;;;;;;0.80;0.70;;;22.50;99.90;;;;;;5126589;27;21306;-79
2023/07/29 07:27:15;;;;;;;1.27;1.17;;;22.70;99.90;;;;;;5126630;27;20515;-79
2023/07/29 07:29:42;;;;;;;3.13;0.70;;;22.90;99.90;;;;;;5125164;27;20503;-81
2023/07/29 07:32:09;;;;;;;0.90;0.90;;;23.10;99.90;;;;;;5131772;27;20519;-81
2023/07/29 07:34:36;;;;;;;0.60;0.60;;;22.70;99.90;;;;;;5123112;27;21084;-80
2023/07/29 07:37:04;;;;;;;0.83;0.77;;;23.00;99.90;;;;;;5122685;27;20464;-79
2023/07/29 07:39:33;;;;;;;0.97;0.60;;;23.20;99.90;;;;;;5123792;27;20516;-81
2023/07/29 07:42:00;;;;;;;1.00;0.80;;;23.10;99.90;;;;;;5145681;27;20459;-79
2023/07/29 07:44:27;;;;;;;1.70;0.87;;;23.30;99.90;;;;;;5133391;27;20631;-77
2023/07/29 07:46:54;;;;;;;0.60;0.60;;;23.30;99.90;;;;;;5131482;27;20830;-80
2023/07/29 07:49:21;;;;;;;0.80;0.80;;;23.50;99.90;;;;;;5127923;27;20442;-80
2023/07/29 07:51:48;;;;;;;1.67;0.63;;;23.70;99.90;;;;;;5128989;27;20511;-80
2023/07/29 07:54:16;;;;;;;1.00;0.90;;;24.00;99.90;;;;;;5129839;27;20485;-79
2023/07/29 07:56:44;;;;;;;1.63;0.70;;;23.90;99.90;;;;;;5123949;27;20454;-81
2023/07/29 07:59:11;;;;;;;1.23;0.60;;;23.80;99.90;;;;;;5127860;27;20445;-80
2023/07/29 08:01:39;;;;;;;1.77;0.87;;;23.90;99.90;;;;;;5122312;27;20545;-80
2023/07/29 08:04:06;;;;;;;1.30;1.07;;;23.90;99.90;;;;;;5126571;27;20557;-79
2023/07/29 08:06:35;;;;;;;1.53;0.90;;;23.90;99.90;;;;;;5120905;27;20469;-80
2023/07/29 08:09:02;;;;;;;0.97;0.97;;;24.40;99.90;;;;;;5124909;27;21074;-80
2023/07/29 08:11:29;;;;;;;0.90;0.57;;;24.50;99.90;;;;;;5121127;27;20462;-80
2023/07/29 08:13:59;;;;;;;0.60;0.50;;;24.20;99.90;;;;;;5125055;27;20476;-77
2023/07/29 08:16:26;;;;;;;0.70;0.67;;;24.50;99.90;;;;;;5121715;27;20999;-80
2023/07/29 08:18:54;;;;;;;1.03;0.80;;;24.60;99.90;;;;;;5123220;27;20455;-80
2023/07/29 08:21:21;;;;;;;1.03;0.73;;;24.30;99.90;;;;;;5125476;27;20943;-80
2023/07/29 08:23:49;;;;;;;1.50;0.80;;;24.50;99.90;;;;;;5119320;27;20511;-80
2023/07/29 08:26:16;;;;;;;1.17;0.70;;;24.70;99.90;;;;;;5126378;27;20460;-83
2023/07/29 08:28:43;;;;;;;0.73;0.73;;;25.00;99.90;;;;;;5129450;27;20488;-80
2023/07/29 08:31:12;;;;;;;0.80;0.70;;;25.30;99.90;;;;;;5120442;27;20920;-81
2023/07/29 08:33:38;;;;;;;0.97;0.73;;;25.30;99.90;;;;;;5126404;27;20461;-81
2023/07/29 08:36:06;;;;;;;1.00;0.60;;;25.20;99.90;;;;;;5124899;27;20453;-81
2023/07/29 08:38:33;;;;;;;0.80;0.60;;;25.20;99.90;;;;;;5122596;27;20998;-79
2023/07/29 08:41:07;;;;;;;1.07;0.80;;;25.00;99.90;;;;;;5122562;27;20471;-79
2023/07/29 08:43:34;;;;;;;0.90;0.73;;;24.80;99.90;;;;;;5123952;27;20440;-81
2023/07/29 08:46:02;;;;;;;0.57;0.43;;;25.00;99.90;;;;;;5118535;27;20842;-80
2023/07/29 08:48:37;;;;;;;0.80;0.70;;;24.90;99.90;;;;;;5124131;27;20500;-80
2023/07/29 08:51:06;;;;;;;0.73;0.60;;;24.70;99.90;;;;;;5122496;27;20864;-79
2023/07/29 08:53:33;;;;;;;0.80;0.80;;;24.40;99.90;;;;;;5121062;27;20480;-80
2023/07/29 08:56:00;;;;;;;0.70;0.60;;;24.70;99.90;;;;;;5121590;27;20470;-81
2023/07/29 08:58:28;;;;;;;0.67;0.50;;;24.80;99.90;;;;;;5120337;27;20932;-79
2023/07/29 09:00:55;;;;;;;2.50;0.60;;;25.10;99.90;;;;;;5128177;27;20466;-82
2023/07/29 09:03:22;;;;;;;1.57;0.83;;;25.20;99.90;;;;;;5126297;27;20464;-80
2023/07/29 09:05:52;;;;;;;0.80;0.60;;;25.10;99.90;;;;;;5134297;27;20496;-80
2023/07/29 09:08:19;;;;;;;1.20;0.80;;;25.30;99.90;;;;;;5149243;27;20425;-79
2023/07/29 09:10:46;;;;;;;0.77;0.60;;;25.10;99.90;;;;;;5136313;27;20448;-79
2023/07/29 09:13:13;;;;;;;1.03;0.67;;;25.20;99.90;;;;;;5129855;27;20486;-79
2023/07/29 09:15:42;;;;;;;0.80;0.77;;;25.40;99.90;;;;;;5126176;27;20490;-83
2023/07/29 09:18:13;;;;;;;0.80;0.60;;;25.70;99.90;;;;;;5117431;27;20511;-82
2023/07/29 09:20:40;;;;;;;0.80;0.50;;;25.60;99.90;;;;;;5121334;27;21260;-80
2023/07/29 09:23:11;;;;;;;0.50;0.47;;;25.60;99.90;;;;;;5126228;27;21017;-82
2023/07/29 09:25:38;;;;;;;0.60;0.50;;;25.70;99.90;;;;;;5120609;27;20514;-79
2023/07/29 09:28:10;;;;;;;0.70;0.67;;;25.80;99.90;;;;;;5116623;27;20552;-80
2023/07/29 09:30:40;;;;;;;0.70;0.50;;;25.90;99.90;;;;;;5126937;27;20500;-80
2023/07/29 09:33:08;;;;;;;0.80;0.60;;;25.90;99.90;;;;;;5125953;27;20478;-79
2023/07/29 09:35:36;;;;;;;0.90;0.50;;;26.00;99.90;;;;;;5125649;27;20453;-79
2023/07/29 09:38:03;;;;;;;1.10;0.60;;;26.20;99.90;;;;;;5121109;27;20459;-79
2023/07/29 09:40:37;;;;;;;0.90;0.90;;;26.20;99.90;;;;;;5124903;27;20460;-82
2023/07/29 09:43:05;;;;;;;0.73;0.50;;;26.40;99.90;;;;;;5124026;27;20465;-79
2023/07/29 09:45:34;;;;;;;0.80;0.60;;;26.90;99.10;;;;;;5125490;27;20484;-79
2023/07/29 09:48:01;;;;;;;1.20;0.60;;;27.30;99.90;;;;;;5119460;27;20849;-79
2023/07/29 09:50:28;;;;;;;0.60;0.60;;;27.10;98.60;;;;;;5121468;27;20495;-80
2023/07/29 09:52:58;;;;;;;0.70;0.50;;;27.30;98.10;;;;;;5122062;27;20453;-81
2023/07/29 09:55:26;;;;;;;0.60;0.50;;;26.90;96.90;;;;;;5124248;27;20461;-81
2023/07/29 09:57:59;;;;;;;0.70;0.70;;;26.60;97.80;;;;;;5124191;27;20453;-78
2023/07/29 10:00:26;;;;;;;2.97;0.70;;;26.30;98.20;;;;;;5120894;27;20990;-80
2023/07/29 10:02:54;;;;;;;0.90;0.60;;;26.20;98.70;;;;;;5124360;27;20462;-78
2023/07/29 10:05:23;;;;;;;0.73;0.70;;;25.80;99.60;;;;;;5120520;27;20512;-78
2023/07/29 10:07:51;;;;;;;0.83;0.40;;;25.60;99.90;;;;;;5122666;27;21177;-80
2023/07/29 10:10:18;;;;;;;1.63;1.27;;;25.50;99.90;;;;;;5118709;27;20457;-77
2023/07/29 10:12:45;;;;;;;0.97;0.60;;;25.20;99.90;;;;;;5120619;27;20998;-79
2023/07/29 10:15:14;;;;;;;0.63;0.60;;;25.00;99.90;;;;;;5123093;27;21089;-77
2023/07/29 10:17:42;;;;;;;0.73;0.63;;;25.00;99.90;;;;;;5119508;27;20455;-79
2023/07/29 10:20:11;;;;;;;5.40;1.00;;;24.90;99.90;;;;;;5122236;27;20519;-80
2023/07/29 10:22:39;;;;;;;1.10;1.00;;;25.10;99.90;;;;;;5120289;27;21160;-79
2023/07/29 10:25:09;;;;;;;1.00;0.70;;;24.90;99.90;;;;;;5119915;27;20477;-78
2023/07/29 10:27:43;;;;;;;0.60;0.60;;;24.40;99.90;;;;;;5125937;27;21085;-79
2023/07/29 10:30:14;;;;;;;0.90;0.70;;;23.70;99.90;;;;;;5128281;27;20453;-79
2023/07/29 10:32:45;;;;;;;1.40;0.67;;;23.40;99.90;;;;;;5133768;27;20721;-78
2023/07/29 10:35:12;;;;;;;0.80;0.80;;;23.40;99.90;;;;;;5132852;27;20454;-80
2023/07/29 10:37:41;;;;;;;1.13;0.80;;;23.30;99.90;;;;;;5121549;27;21110;-78
2023/07/29 10:40:10;;;;;;;0.90;0.67;;;23.30;99.90;;;;;;5121085;27;20491;-79
2023/07/29 10:42:37;;;;;;;0.90;0.63;;;23.10;99.90;;;;;;5123593;27;20466;-80
2023/07/29 10:45:22;;;;;;;0.80;0.70;;;23.00;99.90;;;;;;5126763;27;20489;-78
2023/07/29 10:47:49;;;;;;;1.07;0.77;;;23.10;99.90;;;;;;5119788;27;20457;-78
2023/07/29 10:50:20;;;;;;;1.30;0.97;;;23.20;99.90;;;;;;5123824;28;20538;-79
2023/07/29 10:52:51;;;;;;;1.53;0.70;;;23.40;99.90;;;;;;5123523;27;20460;-77
2023/07/29 10:55:29;;;;;;;1.63;0.60;;;23.50;99.90;;;;;;5120426;28;20463;-78
2023/07/29 10:58:08;;;;;;;1.30;1.20;;;23.60;99.90;;;;;;5123419;28;20515;-79
2023/07/29 11:00:37;;;;;;;1.03;0.77;;;23.80;99.90;;;;;;5123627;27;20463;-78
2023/07/29 11:03:06;;;;;;;0.90;0.70;;;23.80;99.90;;;;;;5124529;27;20505;-77
2023/07/29 11:05:50;;;;;;;2.00;1.00;;;23.80;99.90;;;;;;5124386;27;20563;-76
2023/07/29 11:08:25;;;;;;;2.10;1.07;;;23.70;99.90;;;;;;5123806;27;20449;-77
2023/07/29 11:11:07;;;;;;;1.00;0.83;;;23.70;99.90;;;;;;5123998;27;20471;-78
2023/07/29 11:13:36;;;;;;;0.90;0.70;;;23.80;99.90;;;;;;5124232;27;20538;-77
2023/07/29 11:16:05;;;;;;;1.03;0.70;;;23.80;99.90;;;;;;5125212;28;20856;-80
2023/07/29 11:18:34;;;;;;;0.87;0.67;;;23.60;99.90;;;;;;5123747;28;20510;-79
2023/07/29 11:21:01;;;;;;;0.77;0.77;;;23.70;99.90;;;;;;5127319;27;20902;-77
2023/07/29 11:23:30;;;;;;;0.70;0.63;;;23.70;99.90;;;;;;5119399;28;20474;-80
2023/07/29 11:25:58;;;;;;;1.83;0.60;;;23.60;99.90;;;;;;5128197;27;20488;-78
2023/07/29 11:28:26;;;;;;;1.07;0.70;;;23.60;99.90;;;;;;5119799;27;20560;-77
2023/07/29 11:30:54;;;;;;;1.70;0.60;;;23.70;99.90;;;;;;5123483;27;20459;-77
2023/07/29 11:33:25;;;;;;;1.03;0.80;;;23.80;99.90;;;;;;5127586;27;20957;-79
2023/07/29 11:35:52;;;;;;;0.70;0.70;;;23.90;99.90;;;;;;5124313;27;20484;-77
2023/07/29 11:38:21;;;;;;;1.80;0.77;;;24.00;99.90;;;;;;5122666;27;20464;-80
2023/07/29 11:40:59;;;;;;;0.73;0.60;;;24.10;99.90;;;;;;5121351;27;20617;-79
2023/07/29 11:43:26;;;;;;;1.23;0.77;;;24.10;99.90;;;;;;5123462;27;20459;-78
2023/07/29 11:45:53;;;;;;;1.33;0.80;;;24.20;99.90;;;;;;5127472;27;20526;-77
2023/07/29 11:48:27;;;;;;;1.00;0.90;;;24.40;99.90;;;;;;5127338;27;20493;-79
2023/07/29 11:50:55;;;;;;;1.20;0.70;;;24.40;99.90;;;;;;5128821;27;20468;-79
2023/07/29 11:53:22;;;;;;;1.43;0.70;;;24.60;99.90;;;;;;5123916;27;20547;-78
2023/07/29 11:55:53;;;;;;;0.80;0.67;;;24.50;99.90;;;;;;5131332;27;20494;-80
2023/07/29 11:58:21;;;;;;;1.00;0.60;;;24.60;99.90;;;;;;5133620;27;20539;-77
2023/07/29 12:00:48;;;;;;;1.27;1.17;;;25.30;99.90;;;;;;5135247;27;20498;-77
2023/07/29 12:03:17;;;;;;;1.00;0.70;;;26.00;99.90;;;;;;5127510;27;20479;-78
2023/07/29 12:05:46;;;;;;;1.60;0.70;;;26.30;99.90;;;;;;5125619;27;20564;-77
2023/07/29 12:08:13;;;;;;;0.80;0.70;;;26.20;99.90;;;;;;5124610;27;20947;-77
2023/07/29 12:10:40;;;;;;;0.73;0.70;;;25.80;99.90;;;;;;5124688;27;20445;-80
2023/07/29 12:13:09;;;;;;;1.60;0.60;;;25.70;99.90;;;;;;5119776;27;20949;-78
2023/07/29 12:15:38;;;;;;;1.00;0.90;;;25.90;99.90;;;;;;5125222;27;20450;-79
2023/07/29 12:18:05;;;;;;;0.90;0.80;;;25.60;99.90;;;;;;5118801;27;20460;-78
2023/07/29 12:20:32;;;;;;;0.77;0.77;;;25.60;99.90;;;;;;5120848;27;20454;-77
2023/07/29 12:23:02;;;;;;;0.63;0.60;;;25.70;99.90;;;;;;5128170;27;21082;-79
2023/07/29 12:25:30;;;;;;;0.70;0.60;;;26.10;99.90;;;;;;5122189;27;20546;-77
2023/07/29 12:27:57;;;;;;;0.93;0.60;;;26.30;99.90;;;;;;5117701;27;20519;-77
2023/07/29 12:30:26;;;;;;;1.10;0.70;;;26.40;99.90;;;;;;5125603;27;20462;-78
2023/07/29 12:32:52;;;;;;;1.10;0.80;;;26.40;99.90;;;;;;5122302;27;20473;-79
2023/07/29 12:35:19;;;;;;;1.10;0.70;;;26.60;99.90;;;;;;5122922;27;21442;-77
2023/07/29 12:37:46;;;;;;;0.97;0.87;;;26.70;98.80;;;;;;5123165;27;21418;-79
2023/07/29 12:40:25;;;;;;;0.80;0.80;;;26.60;99.60;;;;;;5121099;27;20582;-79
2023/07/29 12:42:53;;;;;;;0.70;0.60;;;26.40;98.50;;;;;;5120149;27;20512;-78
2023/07/29 12:45:22;;;;;;;0.80;0.70;;;26.60;98.90;;;;;;5120069;27;20477;-77
2023/07/29 12:47:49;;;;;;;0.70;0.70;;;26.80;97.10;;;;;;5124429;27;20545;-78
2023/07/29 12:50:16;;;;;;;0.70;0.60;;;27.00;96.40;;;;;;5125655;27;20457;-79
2023/07/29 12:52:43;;;;;;;1.57;0.90;;;27.00;97.70;;;;;;5123255;27;20506;-77